Time;durP1;ratioP1;P1;durP2;ratioP2;P2;SDS_P1;SDS_P2;PMS_P1;PMS_P2;Temp;Humidity;BMP_temperature;BMP_pressure;BME280_temperature;BME280_humidity;BME280_pressure;Samples;Min_cycle;Max_cycle;Signal;HPM_P1;HPM_P2
2021/06/28 00:08:07;;;;;;;16.08;10.48;;;;;;;19.49;100.00;100488.95;713983;1200;114914;-81
2021/06/28 00:23:10;;;;;;;7.83;5.65;;;;;;;19.37;100.00;100484.11;714114;1199;114374;-80
2021/06/28 00:38:13;;;;;;;9.50;6.47;;;;;;;19.22;100.00;100489.48;714193;1200;114611;-81
2021/06/28 00:53:18;;;;;;;9.43;6.20;;;;;;;19.20;100.00;100478.22;714201;1199;114913;-81
2021/06/28 01:08:20;;;;;;;11.15;7.08;;;;;;;18.93;100.00;100485.86;714412;1200;114993;-81
2021/06/28 01:23:25;;;;;;;13.98;7.20;;;;;;;18.60;100.00;100490.72;714311;1176;114863;-80
2021/06/28 01:38:27;;;;;;;9.43;6.33;;;;;;;18.36;100.00;100484.66;714261;1199;114237;-81
2021/06/28 01:53:29;;;;;;;9.88;6.90;;;;;;;18.21;100.00;100471.37;714418;1199;114477;-81
2021/06/28 02:08:34;;;;;;;7.70;6.08;;;;;;;17.94;100.00;100464.80;714028;1202;115213;-80
2021/06/28 02:23:38;;;;;;;8.65;5.85;;;;;;;17.65;100.00;100455.72;714312;1203;113965;-82
2021/06/28 02:38:42;;;;;;;14.40;8.78;;;;;;;17.56;100.00;100475.34;714134;1200;114853;-82
2021/06/28 02:53:44;;;;;;;11.43;7.30;;;;;;;17.29;100.00;100466.91;714381;1199;114313;-80
2021/06/28 03:08:48;;;;;;;11.83;7.50;;;;;;;17.15;100.00;100476.41;714058;1199;114155;-80
2021/06/28 03:23:50;;;;;;;12.33;6.87;;;;;;;17.14;100.00;100477.41;713980;1199;115829;-76
2021/06/28 03:38:53;;;;;;;13.20;8.20;;;;;;;17.12;100.00;100466.17;714288;1193;114158;-76
2021/06/28 03:53:55;;;;;;;18.60;9.08;;;;;;;17.25;100.00;100455.81;714220;1200;115431;-77
2021/06/28 04:08:58;;;;;;;12.63;9.68;;;;;;;17.59;100.00;100456.41;713913;1199;114695;-76
2021/06/28 04:24:05;;;;;;;16.70;10.00;;;;;;;17.85;100.00;100465.84;714074;1203;115936;-75
2021/06/28 04:39:07;;;;;;;14.85;9.98;;;;;;;18.21;100.00;100476.67;714187;1200;114291;-76
2021/06/28 04:54:09;;;;;;;19.13;10.43;;;;;;;18.77;100.00;100483.39;713882;1200;114637;-75
2021/06/28 05:09:11;;;;;;;13.13;8.53;;;;;;;19.50;100.00;100488.75;717138;1166;114430;-73
2021/06/28 05:24:14;;;;;;;10.70;7.73;;;;;;;19.97;100.00;100491.05;714448;1203;114703;-73
2021/06/28 05:39:16;;;;;;;14.25;8.00;;;;;;;20.54;100.00;100505.20;715326;1199;114569;-74
2021/06/28 05:54:18;;;;;;;10.65;6.90;;;;;;;21.24;100.00;100505.95;716232;1199;115101;-76
2021/06/28 06:09:21;;;;;;;5.58;4.05;;;;;;;21.93;97.20;100516.59;714491;1199;114078;-79
2021/06/28 06:24:27;;;;;;;4.00;3.47;;;;;;;22.71;93.09;100537.33;714762;1200;114194;-78
2021/06/28 06:39:31;;;;;;;5.55;3.73;;;;;;;23.12;87.08;100546.02;714240;1199;115575;-78
2021/06/28 06:54:33;;;;;;;3.33;2.80;;;;;;;23.37;83.56;100558.72;714088;1200;114161;-79
2021/06/28 07:09:35;;;;;;;4.27;3.50;;;;;;;23.67;79.32;100569.67;714118;1203;114143;-79
2021/06/28 07:24:38;;;;;;;8.80;3.45;;;;;;;24.16;78.00;100567.30;713968;1203;114421;-78
2021/06/28 07:39:40;;;;;;;4.20;2.80;;;;;;;24.72;77.21;100570.16;714112;1202;115174;-76
2021/06/28 07:54:44;;;;;;;6.07;3.60;;;;;;;25.38;74.58;100559.71;714680;1184;113782;-77
2021/06/28 08:09:46;;;;;;;5.95;4.08;;;;;;;25.99;73.51;100563.15;730073;1203;115139;-77
2021/06/28 08:24:48;;;;;;;3.33;2.90;;;;;;;26.39;69.25;100564.39;714466;1203;113675;-75
2021/06/28 08:39:50;;;;;;;4.93;3.48;;;;;;;26.56;68.98;100561.81;714119;1200;115423;-78
2021/06/28 08:54:55;;;;;;;4.10;2.78;;;;;;;25.91;67.84;100560.81;714039;1177;113798;-78
2021/06/28 09:09:58;;;;;;;3.73;2.35;;;;;;;26.78;66.87;100562.06;714349;1203;114364;-75
2021/06/28 09:25:00;;;;;;;2.88;2.58;;;;;;;28.23;65.51;100542.11;714333;1174;113708;-75
2021/06/28 09:40:03;;;;;;;3.45;2.55;;;;;;;28.31;63.53;100553.52;714516;1193;114625;-76
2021/06/28 09:55:28;;;;;;;2.93;2.23;;;;;;;28.15;61.72;100552.48;716239;1202;114011;-75
2021/06/28 10:10:34;;;;;;;3.67;2.47;;;;;;;28.85;60.36;100547.54;714610;1203;114615;-75
2021/06/28 10:25:38;;;;;;;3.35;2.93;;;;;;;28.60;60.88;100542.60;719933;1200;113783;-74
2021/06/28 10:40:45;;;;;;;3.73;2.63;;;;;;;27.21;61.96;100533.86;715071;1202;115434;-76
2021/06/28 10:55:47;;;;;;;3.55;2.25;;;;;;;29.07;59.87;100530.53;714337;1199;114687;-77
2021/06/28 11:10:49;;;;;;;2.30;2.10;;;;;;;29.54;57.51;100516.45;716845;1200;114250;-76
2021/06/28 11:25:54;;;;;;;3.93;2.13;;;;;;;29.98;56.41;100516.28;714881;1199;114649;-75
2021/06/28 11:41:02;;;;;;;5.13;3.70;;;;;;;31.27;55.37;100508.80;715060;1199;115253;-75
2021/06/28 11:56:18;;;;;;;;;;;;;;;31.28;51.79;100502.30;714724;1202;114464;-81
2021/06/28 12:11:20;;;;;;;6.45;3.00;;;;;;;31.60;54.42;100498.52;714944;1199;101455;-82
2021/06/28 12:26:23;;;;;;;4.33;3.40;;;;;;;31.61;53.17;100483.09;714614;1199;114001;-79
2021/06/28 12:41:25;;;;;;;3.50;2.98;;;;;;;32.17;52.20;100488.47;715068;1200;113662;-79
2021/06/28 12:56:31;;;;;;;4.00;3.60;;;;;;;30.81;53.12;100481.58;715134;1199;114611;-78
2021/06/28 13:11:46;;;;;;;5.90;2.95;;;;;;;32.36;51.78;100474.30;715144;1199;113825;-79
2021/06/28 13:26:56;;;;;;;3.90;3.50;;;;;;;31.72;52.00;100471.17;715697;1189;113871;-80
2021/06/28 13:41:58;;;;;;;2.85;2.55;;;;;;;32.38;51.32;100457.77;715423;1177;113995;-78
2021/06/28 13:57:00;;;;;;;8.20;3.28;;;;;;;32.83;51.12;100448.59;715397;1199;113832;-76
2021/06/28 14:12:03;;;;;;;3.98;3.10;;;;;;;32.65;50.62;100428.32;714832;1205;114631;-76
2021/06/28 14:27:05;;;;;;;3.98;3.03;;;;;;;32.85;49.90;100416.55;714885;1199;114996;-76
2021/06/28 14:42:07;;;;;;;6.93;3.77;;;;;;;31.73;50.65;100409.62;715077;1200;114924;-80
2021/06/28 14:57:11;;;;;;;3.30;2.77;;;;;;;32.08;50.77;100397.06;715139;1199;114236;-82
2021/06/28 15:12:14;;;;;;;3.98;2.88;;;;;;;32.58;50.01;100389.00;714981;1199;114233;-77
2021/06/28 15:27:16;;;;;;;7.15;6.40;;;;;;;32.46;49.82;100384.70;714811;1199;114660;-79
2021/06/28 15:42:18;;;;;;;4.10;3.23;;;;;;;32.35;49.96;100375.01;714659;1175;113916;-78
2021/06/28 15:57:20;;;;;;;8.10;3.35;;;;;;;31.30;51.40;100367.36;715695;1200;114337;-78
2021/06/28 16:12:22;;;;;;;6.68;2.93;;;;;;;30.57;52.24;100357.54;714302;1199;114286;-78
2021/06/28 16:27:25;;;;;;;4.53;4.08;;;;;;;30.57;51.56;100357.54;714204;1176;114429;-79
2021/06/28 16:42:27;;;;;;;3.75;2.70;;;;;;;30.93;51.24;100349.46;714647;1178;113833;-78
2021/06/28 16:57:29;;;;;;;7.58;3.35;;;;;;;31.00;51.49;100333.77;727076;1197;113255;-79
2021/06/28 17:12:32;;;;;;;7.05;4.05;;;;;;;30.03;51.80;100326.23;718622;1200;112618;-79
2021/06/28 17:27:34;;;;;;;4.28;3.03;;;;;;;29.57;53.30;100315.17;714016;1202;115335;-75
2021/06/28 17:42:37;;;;;;;5.58;3.90;;;;;;;29.45;54.39;100309.97;713986;1199;115200;-74
2021/06/28 17:57:39;;;;;;;5.25;4.13;;;;;;;28.97;55.48;100302.58;714170;1199;114380;-75
2021/06/28 18:12:41;;;;;;;5.80;4.23;;;;;;;28.36;56.09;100298.20;714776;1199;113823;-73
2021/06/28 18:27:44;;;;;;;5.97;4.10;;;;;;;27.84;58.22;100290.56;714680;1199;114697;-72
2021/06/28 18:42:46;;;;;;;4.78;3.98;;;;;;;27.21;59.86;100285.34;714622;1202;114273;-74
2021/06/28 18:57:48;;;;;;;12.20;8.90;;;;;;;26.37;62.97;100294.94;714842;1200;114617;-74
2021/06/28 19:12:50;;;;;;;10.27;7.67;;;;;;;25.73;64.87;100301.96;714951;1199;114093;-74
2021/06/28 19:27:53;;;;;;;7.47;4.40;;;;;;;25.28;66.24;100302.51;716823;1199;113975;-72
2021/06/28 19:42:56;;;;;;;11.20;6.83;;;;;;;24.61;68.71;100311.55;714038;1176;114176;-74
2021/06/28 19:57:58;;;;;;;23.70;12.00;;;;;;;24.23;70.99;100321.53;714123;1178;114239;-73
2021/06/28 20:13:01;;;;;;;26.78;10.33;;;;;;;23.73;73.49;100333.17;713939;1199;114152;-75
2021/06/28 20:28:03;;;;;;;10.53;6.67;;;;;;;23.05;75.01;100341.94;713824;1199;115296;-75
2021/06/28 20:43:05;;;;;;;13.73;7.08;;;;;;;22.75;77.34;100347.88;713886;1200;115294;-74
2021/06/28 20:58:07;;;;;;;10.75;6.53;;;;;;;22.37;78.58;100341.48;714314;1199;114990;-74
2021/06/28 21:13:10;;;;;;;12.27;7.40;;;;;;;22.02;80.42;100339.09;714256;1199;115482;-75
2021/06/28 21:28:13;;;;;;;45.98;21.85;;;;;;;21.78;83.38;100344.07;714246;1199;115487;-74
2021/06/28 21:43:15;;;;;;;23.10;12.28;;;;;;;21.35;85.46;100338.33;714136;1200;115011;-74
2021/06/28 21:58:17;;;;;;;20.08;11.40;;;;;;;21.05;86.65;100336.03;716152;1200;115066;-75
2021/06/28 22:13:19;;;;;;;22.73;11.00;;;;;;;20.81;89.39;100337.44;714172;1202;114240;-76
2021/06/28 22:28:22;;;;;;;19.43;11.63;;;;;;;20.59;91.33;100334.89;714205;1199;115112;-73
2021/06/28 22:43:24;;;;;;;16.65;10.63;;;;;;;20.30;92.71;100336.83;714608;1177;114702;-73
2021/06/28 22:58:26;;;;;;;23.95;12.93;;;;;;;20.02;93.94;100328.89;714022;1199;114572;-73
2021/06/28 23:13:29;;;;;;;15.95;9.65;;;;;;;19.66;95.64;100333.34;714233;1199;115106;-73
2021/06/28 23:28:50;;;;;;;13.43;9.10;;;;;;;19.61;95.74;100330.44;714024;1200;113698;-73
2021/06/28 23:43:52;;;;;;;14.25;8.23;;;;;;;19.09;96.26;100317.33;714220;1200;113882;-74
2021/06/28 23:58:54;;;;;;;10.93;6.80;;;;;;;18.84;98.00;100302.77;714141;1177;114873;-73
